CGVLD CYXU-CYXU
Flight info
| Callsign | CGVLD |
|---|---|
| Flight time | 0h 12m |
| Altitude | 1900 |
| Route | CYXU/15 CIRCUITS |
| Aircraft | PA24 |
Departure
| Time | 2026-04-22 00:18 |
|---|---|
| Airport | London International Airport (CYXU) |
Arrival
| Time | 2026-04-22 00:30 |
|---|---|
| Airport | London International Airport (CYXU) |
| Time | Latitude | Longitude | Altitude | Speed | Heading |
|---|---|---|---|---|---|
| 2026-04-22 00:13 | 43.03174 | -81.15292 | 903 ft | 0 kts | 314° |
| 2026-04-22 00:14 | 43.03202 | -81.15298 | 909 ft | 10 kts | 50° |
| 2026-04-22 00:14 | 43.03239 | -81.15225 | 903 ft | 10 kts | 53° |
| 2026-04-22 00:15 | 43.03289 | -81.15155 | 903 ft | 11 kts | 40° |
| 2026-04-22 00:15 | 43.03321 | -81.15105 | 903 ft | 3 kts | 44° |
| 2026-04-22 00:15 | 43.03321 | -81.15098 | 903 ft | 0 kts | 129° |
| 2026-04-22 00:16 | 43.03322 | -81.15090 | 903 ft | 0 kts | 37° |
| 2026-04-22 00:17 | 43.03363 | -81.15052 | 904 ft | 11 kts | 36° |
| 2026-04-22 00:17 | 43.03374 | -81.14977 | 904 ft | 10 kts | 137° |
| 2026-04-22 00:18 | 43.03309 | -81.14897 | 903 ft | 46 kts | 138° |
| 2026-04-22 00:18 | 43.02916 | -81.14441 | 997 ft | 87 kts | 136° |
| 2026-04-22 00:18 | 43.02436 | -81.13891 | 1304 ft | 91 kts | 137° |
| 2026-04-22 00:18 | 43.01959 | -81.13267 | 1531 ft | 103 kts | 123° |
| 2026-04-22 00:19 | 43.01991 | -81.12276 | 1639 ft | 115 kts | 62° |
| 2026-04-22 00:19 | 43.02647 | -81.11613 | 1707 ft | 124 kts | 17° |
| 2026-04-22 00:19 | 43.03494 | -81.11748 | 1776 ft | 127 kts | 324° |
| 2026-04-22 00:19 | 43.04213 | -81.12406 | 1723 ft | 121 kts | 317° |
| 2026-04-22 00:20 | 43.04862 | -81.13048 | 1702 ft | 113 kts | 316° |
| 2026-04-22 00:20 | 43.05500 | -81.13661 | 1710 ft | 112 kts | 318° |
| 2026-04-22 00:20 | 43.06152 | -81.14265 | 1692 ft | 115 kts | 320° |
| 2026-04-22 00:20 | 43.06832 | -81.14861 | 1726 ft | 115 kts | 321° |
| 2026-04-22 00:21 | 43.07372 | -81.15645 | 1783 ft | 112 kts | 293° |
| 2026-04-22 00:21 | 43.07564 | -81.16649 | 1789 ft | 108 kts | 262° |
| 2026-04-22 00:21 | 43.07427 | -81.17610 | 1782 ft | 100 kts | 241° |
| 2026-04-22 00:21 | 43.06982 | -81.18331 | 1650 ft | 102 kts | 210° |
| 2026-04-22 00:22 | 43.06274 | -81.18440 | 1498 ft | 109 kts | 158° |
| 2026-04-22 00:22 | 43.05699 | -81.17759 | 1393 ft | 108 kts | 136° |
| 2026-04-22 00:22 | 43.05169 | -81.17111 | 1275 ft | 96 kts | 140° |
| 2026-04-22 00:22 | 43.04681 | -81.16548 | 1116 ft | 89 kts | 137° |
| 2026-04-22 00:23 | 43.04231 | -81.16005 | 953 ft | 81 kts | 137° |
| 2026-04-22 00:23 | 43.03866 | -81.15569 | 901 ft | 57 kts | 133° |
| 2026-04-22 00:23 | 43.03610 | -81.15249 | 904 ft | 54 kts | 143° |
| 2026-04-22 00:23 | 43.03198 | -81.14780 | 985 ft | 90 kts | 138° |
| 2026-04-22 00:24 | 43.02674 | -81.14183 | 1210 ft | 103 kts | 140° |
| 2026-04-22 00:24 | 43.02119 | -81.13529 | 1456 ft | 106 kts | 142° |
| 2026-04-22 00:24 | 43.01587 | -81.12813 | 1641 ft | 109 kts | 141° |
| 2026-04-22 00:24 | 43.01040 | -81.12067 | 1738 ft | 111 kts | 135° |
| 2026-04-22 00:25 | 43.00852 | -81.11057 | 1740 ft | 116 kts | 90° |
| 2026-04-22 00:25 | 43.01196 | -81.10053 | 1742 ft | 121 kts | 54° |
| 2026-04-22 00:25 | 43.01911 | -81.09449 | 1723 ft | 123 kts | 13° |
| 2026-04-22 00:25 | 43.02751 | -81.09479 | 1764 ft | 121 kts | 340° |
| 2026-04-22 00:26 | 43.03508 | -81.09916 | 1810 ft | 116 kts | 326° |
| 2026-04-22 00:26 | 43.04222 | -81.10408 | 1845 ft | 115 kts | 321° |
| 2026-04-22 00:26 | 43.04923 | -81.10925 | 1887 ft | 115 kts | 320° |
| 2026-04-22 00:26 | 43.05628 | -81.11478 | 1937 ft | 117 kts | 317° |
| 2026-04-22 00:27 | 43.06328 | -81.12064 | 1981 ft | 119 kts | 314° |
| 2026-04-22 00:27 | 43.06995 | -81.12698 | 2068 ft | 115 kts | 311° |
| 2026-04-22 00:27 | 43.07633 | -81.13371 | 2083 ft | 116 kts | 303° |
| 2026-04-22 00:27 | 43.07993 | -81.14277 | 2137 ft | 102 kts | 271° |
| 2026-04-22 00:28 | 43.08030 | -81.15199 | 2069 ft | 99 kts | 255° |
| 2026-04-22 00:28 | 43.07924 | -81.16134 | 1947 ft | 100 kts | 250° |
| 2026-04-22 00:28 | 43.07770 | -81.17059 | 1805 ft | 99 kts | 249° |
| 2026-04-22 00:28 | 43.07538 | -81.17964 | 1678 ft | 102 kts | 241° |
| 2026-04-22 00:29 | 43.07149 | -81.18720 | 1625 ft | 96 kts | 208° |
| 2026-04-22 00:29 | 43.06514 | -81.18658 | 1505 ft | 99 kts | 154° |
| 2026-04-22 00:29 | 43.05964 | -81.18066 | 1398 ft | 100 kts | 140° |
| 2026-04-22 00:29 | 43.05458 | -81.17441 | 1336 ft | 97 kts | 140° |
| 2026-04-22 00:30 | 43.04967 | -81.16872 | 1196 ft | 86 kts | 140° |
| 2026-04-22 00:30 | 43.04533 | -81.16382 | 1033 ft | 77 kts | 135° |
| 2026-04-22 00:30 | 43.04143 | -81.15905 | 924 ft | 72 kts | 133° |
| 2026-04-22 00:30 | 43.03825 | -81.15516 | 902 ft | 48 kts | 137° |
| 2026-04-22 00:31 | 43.03604 | -81.15247 | 904 ft | 47 kts | 138° |
| 2026-04-22 00:31 | 43.03243 | -81.14831 | 951 ft | 84 kts | 137° |
| 2026-04-22 00:31 | 43.02782 | -81.14272 | 1116 ft | 97 kts | 135° |
| 2026-04-22 00:31 | 43.02258 | -81.13656 | 1386 ft | 101 kts | 138° |
| 2026-04-22 00:32 | 43.01747 | -81.13009 | 1577 ft | 102 kts | 139° |
| 2026-04-22 00:32 | 43.01520 | -81.12072 | 1588 ft | 113 kts | 85° |
| 2026-04-22 00:32 | 43.01987 | -81.11222 | 1604 ft | 122 kts | 29° |
| 2026-04-22 00:32 | 43.02803 | -81.11087 | 1662 ft | 120 kts | 340° |
| 2026-04-22 00:33 | 43.03496 | -81.11704 | 1733 ft | 118 kts | 318° |
| 2026-04-22 00:33 | 43.04180 | -81.12343 | 1761 ft | 119 kts | 319° |
| 2026-04-22 00:33 | 43.04896 | -81.12929 | 1791 ft | 121 kts | 323° |
| 2026-04-22 00:33 | 43.05651 | -81.13443 | 1842 ft | 122 kts | 326° |
| 2026-04-22 00:34 | 43.06434 | -81.13896 | 1897 ft | 123 kts | 326° |
| 2026-04-22 00:34 | 43.07161 | -81.14518 | 1917 ft | 124 kts | 299° |
| 2026-04-22 00:34 | 43.07506 | -81.15510 | 1836 ft | 110 kts | 273° |
| 2026-04-22 00:34 | 43.07565 | -81.16530 | 1683 ft | 108 kts | 262° |
| 2026-04-22 00:35 | 43.07432 | -81.17527 | 1549 ft | 105 kts | 246° |
| 2026-04-22 00:35 | 43.07098 | -81.18387 | 1465 ft | 101 kts | 225° |
| 2026-04-22 00:35 | 43.06448 | -81.18643 | 1345 ft | 104 kts | 165° |
| 2026-04-22 00:35 | 43.05900 | -81.18032 | 1263 ft | 103 kts | 134° |
| 2026-04-22 00:36 | 43.05396 | -81.17399 | 1153 ft | 92 kts | 137° |
| 2026-04-22 00:36 | 43.04940 | -81.16852 | 1101 ft | 82 kts | 135° |
| 2026-04-22 00:36 | 43.04551 | -81.16390 | 1022 ft | 68 kts | 136° |
| 2026-04-22 00:36 | 43.04227 | -81.16011 | 906 ft | 54 kts | 134° |
| 2026-04-22 00:37 | 43.04081 | -81.15826 | 903 ft | 22 kts | 137° |
| 2026-04-22 00:37 | 43.04068 | -81.15810 | 903 ft | 0 kts | 144° |
| 2026-04-22 00:37 | 43.03951 | -81.15666 | 902 ft | 58 kts | 132° |
| 2026-04-22 00:37 | 43.03373 | -81.14987 | 1011 ft | 97 kts | 135° |
| 2026-04-22 00:38 | 43.03016 | -81.14556 | 1143 ft | 106 kts | 136° |
| 2026-04-22 00:38 | 43.02447 | -81.13873 | 1325 ft | 110 kts | 138° |
| 2026-04-22 00:38 | 43.01885 | -81.13161 | 1434 ft | 111 kts | 129° |
| 2026-04-22 00:38 | 43.01765 | -81.12131 | 1476 ft | 114 kts | 81° |
| 2026-04-22 00:39 | 43.02181 | -81.11207 | 1564 ft | 120 kts | 40° |
| 2026-04-22 00:39 | 43.02971 | -81.10851 | 1616 ft | 122 kts | 359° |
| 2026-04-22 00:39 | 43.03812 | -81.10981 | 1709 ft | 123 kts | 341° |
| 2026-04-22 00:39 | 43.04622 | -81.11352 | 1795 ft | 123 kts | 333° |
| 2026-04-22 00:40 | 43.05430 | -81.11749 | 1891 ft | 123 kts | 327° |
| 2026-04-22 00:40 | 43.06204 | -81.12243 | 1916 ft | 126 kts | 321° |
| 2026-04-22 00:40 | 43.06939 | -81.12856 | 1941 ft | 122 kts | 315° |
| 2026-04-22 00:40 | 43.07641 | -81.13516 | 1929 ft | 121 kts | 312° |
| 2026-04-22 00:41 | 43.08099 | -81.14395 | 1972 ft | 108 kts | 269° |
| 2026-04-22 00:41 | 43.07997 | -81.15321 | 1854 ft | 96 kts | 243° |
| 2026-04-22 00:41 | 43.07737 | -81.16166 | 1729 ft | 97 kts | 240° |
| 2026-04-22 00:41 | 43.07423 | -81.16993 | 1641 ft | 96 kts | 237° |
| 2026-04-22 00:42 | 43.07064 | -81.17750 | 1549 ft | 94 kts | 234° |
| 2026-04-22 00:42 | 43.06580 | -81.18269 | 1547 ft | 88 kts | 198° |
| 2026-04-22 00:42 | 43.05979 | -81.18219 | 1424 ft | 94 kts | 142° |
| 2026-04-22 00:42 | 43.05516 | -81.17538 | 1290 ft | 97 kts | 137° |
| 2026-04-22 00:43 | 43.05056 | -81.16991 | 1225 ft | 76 kts | 139° |
| 2026-04-22 00:43 | 43.04684 | -81.16548 | 1094 ft | 67 kts | 136° |
| 2026-04-22 00:43 | 43.04337 | -81.16139 | 950 ft | 64 kts | 135° |
| 2026-04-22 00:43 | 43.04079 | -81.15827 | 903 ft | 18 kts | 138° |
| 2026-04-22 00:44 | 43.04069 | -81.15815 | 903 ft | 0 kts | 137° |
| 2026-04-22 00:44 | 43.04061 | -81.15804 | 903 ft | 12 kts | 136° |
| 2026-04-22 00:44 | 43.03856 | -81.15535 | 901 ft | 69 kts | 139° |
| 2026-04-22 00:44 | 43.03410 | -81.15030 | 1005 ft | 90 kts | 137° |
| 2026-04-22 00:45 | 43.02893 | -81.14454 | 1215 ft | 98 kts | 137° |
| 2026-04-22 00:45 | 43.02392 | -81.13811 | 1440 ft | 102 kts | 135° |
| 2026-04-22 00:45 | 43.01881 | -81.13160 | 1667 ft | 104 kts | 143° |
| 2026-04-22 00:45 | 43.01494 | -81.12310 | 1704 ft | 114 kts | 106° |
| 2026-04-22 00:46 | 43.01604 | -81.11225 | 1775 ft | 123 kts | 76° |
| 2026-04-22 00:46 | 43.02041 | -81.10169 | 1772 ft | 133 kts | 44° |
| 2026-04-22 00:46 | 43.02927 | -81.09931 | 1684 ft | 133 kts | 342° |
| 2026-04-22 00:46 | 43.03739 | -81.10394 | 1817 ft | 126 kts | 328° |
| 2026-04-22 00:47 | 43.04535 | -81.10908 | 1854 ft | 125 kts | 324° |
| 2026-04-22 00:47 | 43.05309 | -81.11465 | 1877 ft | 126 kts | 321° |
| 2026-04-22 00:47 | 43.06092 | -81.12030 | 1867 ft | 127 kts | 323° |
| 2026-04-22 00:47 | 43.06878 | -81.12571 | 1873 ft | 126 kts | 315° |
| 2026-04-22 00:48 | 43.07379 | -81.13433 | 1843 ft | 109 kts | 282° |
| 2026-04-22 00:48 | 43.07514 | -81.14397 | 1767 ft | 101 kts | 261° |
| 2026-04-22 00:48 | 43.07408 | -81.15350 | 1650 ft | 102 kts | 250° |
| 2026-04-22 00:48 | 43.07192 | -81.16273 | 1542 ft | 103 kts | 245° |
| 2026-04-22 00:49 | 43.06906 | -81.17159 | 1455 ft | 102 kts | 238° |
| 2026-04-22 00:49 | 43.06342 | -81.17700 | 1385 ft | 104 kts | 189° |
| 2026-04-22 00:49 | 43.05652 | -81.17473 | 1299 ft | 104 kts | 156° |
| 2026-04-22 00:49 | 43.05067 | -81.16977 | 1229 ft | 93 kts | 143° |
| 2026-04-22 00:50 | 43.04609 | -81.16465 | 1087 ft | 77 kts | 137° |
| 2026-04-22 00:50 | 43.04233 | -81.16010 | 934 ft | 68 kts | 137° |
| 2026-04-22 00:50 | 43.03935 | -81.15649 | 902 ft | 47 kts | 140° |
| 2026-04-22 00:50 | 43.03750 | -81.15427 | 902 ft | 23 kts | 139° |
| 2026-04-22 00:51 | 43.03657 | -81.15324 | 903 ft | 13 kts | 139° |
| 2026-04-22 00:51 | 43.03589 | -81.15273 | 904 ft | 12 kts | 211° |
| 2026-04-22 00:51 | 43.03533 | -81.15352 | 903 ft | 9 kts | 229° |
| 2026-04-22 00:51 | 43.03499 | -81.15407 | 903 ft | 11 kts | 220° |
| 2026-04-22 00:52 | 43.03407 | -81.15426 | 903 ft | 12 kts | 179° |
| 2026-04-22 00:52 | 43.03333 | -81.15428 | 903 ft | 13 kts | 175° |
| 2026-04-22 00:52 | 43.03270 | -81.15365 | 903 ft | 12 kts | 134° |
| 2026-04-22 00:52 | 43.03219 | -81.15297 | 903 ft | 10 kts | 153° |
| 2026-04-22 00:53 | 43.03165 | -81.15299 | 903 ft | 7 kts | 141° |
| 2026-04-22 00:53 | 43.03171 | -81.15288 | 903 ft | 1 kts | 309° |
| 2026-04-22 00:53 | 43.03174 | -81.15292 | 903 ft | 0 kts | 316° |